sensor_id;sensor_type;location;lat;lon;timestamp;P1;durP1;ratioP1;P2;durP2;ratioP2
11931;SDS011;6025;51.368;6.788;2023-06-14T00:04:00;8.65;;;5.05;;
11931;SDS011;6025;51.368;6.788;2023-06-14T00:08:53;7.35;;;5.10;;
11931;SDS011;6025;51.368;6.788;2023-06-14T00:13:45;5.40;;;4.90;;
11931;SDS011;6025;51.368;6.788;2023-06-14T00:18:36;5.38;;;4.85;;
11931;SDS011;6025;51.368;6.788;2023-06-14T00:23:28;6.10;;;5.03;;
11931;SDS011;6025;51.368;6.788;2023-06-14T00:28:21;7.63;;;5.35;;
11931;SDS011;6025;51.368;6.788;2023-06-14T00:33:13;7.30;;;5.53;;
11931;SDS011;6025;51.368;6.788;2023-06-14T00:38:05;7.38;;;5.18;;
11931;SDS011;6025;51.368;6.788;2023-06-14T00:42:56;5.90;;;5.28;;
11931;SDS011;6025;51.368;6.788;2023-06-14T00:47:49;7.28;;;5.30;;
11931;SDS011;6025;51.368;6.788;2023-06-14T00:52:42;8.10;;;5.15;;
11931;SDS011;6025;51.368;6.788;2023-06-14T00:57:34;6.22;;;5.40;;
11931;SDS011;6025;51.368;6.788;2023-06-14T01:02:27;8.18;;;5.40;;
11931;SDS011;6025;51.368;6.788;2023-06-14T01:07:23;5.70;;;5.10;;
11931;SDS011;6025;51.368;6.788;2023-06-14T01:12:24;5.90;;;5.20;;
11931;SDS011;6025;51.368;6.788;2023-06-14T01:17:22;7.47;;;5.32;;
11931;SDS011;6025;51.368;6.788;2023-06-14T01:22:14;8.02;;;5.47;;
11931;SDS011;6025;51.368;6.788;2023-06-14T01:27:07;7.13;;;5.15;;
11931;SDS011;6025;51.368;6.788;2023-06-14T01:31:59;13.95;;;5.57;;
11931;SDS011;6025;51.368;6.788;2023-06-14T01:36:52;9.02;;;4.93;;
11931;SDS011;6025;51.368;6.788;2023-06-14T01:41:45;5.72;;;5.13;;
11931;SDS011;6025;51.368;6.788;2023-06-14T01:46:39;8.02;;;5.20;;
11931;SDS011;6025;51.368;6.788;2023-06-14T01:51:31;6.50;;;5.15;;
11931;SDS011;6025;51.368;6.788;2023-06-14T01:56:23;7.82;;;5.07;;
11931;SDS011;6025;51.368;6.788;2023-06-14T02:01:16;8.50;;;5.38;;
11931;SDS011;6025;51.368;6.788;2023-06-14T02:06:10;8.95;;;5.30;;
11931;SDS011;6025;51.368;6.788;2023-06-14T02:11:02;9.18;;;5.43;;
11931;SDS011;6025;51.368;6.788;2023-06-14T02:15:54;7.45;;;4.93;;
11931;SDS011;6025;51.368;6.788;2023-06-14T02:20:45;6.53;;;4.90;;
11931;SDS011;6025;51.368;6.788;2023-06-14T02:25:38;6.80;;;5.25;;
11931;SDS011;6025;51.368;6.788;2023-06-14T02:30:30;6.80;;;4.95;;
11931;SDS011;6025;51.368;6.788;2023-06-14T02:35:22;6.93;;;4.80;;
11931;SDS011;6025;51.368;6.788;2023-06-14T02:40:16;7.72;;;4.80;;
11931;SDS011;6025;51.368;6.788;2023-06-14T02:45:09;5.50;;;4.63;;
11931;SDS011;6025;51.368;6.788;2023-06-14T02:50:01;5.55;;;4.97;;
11931;SDS011;6025;51.368;6.788;2023-06-14T02:54:53;7.63;;;5.07;;
11931;SDS011;6025;51.368;6.788;2023-06-14T02:59:45;7.53;;;4.78;;
11931;SDS011;6025;51.368;6.788;2023-06-14T03:04:38;6.53;;;4.60;;
11931;SDS011;6025;51.368;6.788;2023-06-14T03:09:29;5.53;;;4.40;;
11931;SDS011;6025;51.368;6.788;2023-06-14T03:14:21;7.95;;;4.63;;
11931;SDS011;6025;51.368;6.788;2023-06-14T03:19:12;7.00;;;4.95;;
11931;SDS011;6025;51.368;6.788;2023-06-14T03:24:05;5.88;;;4.80;;
11931;SDS011;6025;51.368;6.788;2023-06-14T03:28:57;11.88;;;4.75;;
11931;SDS011;6025;51.368;6.788;2023-06-14T03:33:49;7.13;;;4.32;;
11931;SDS011;6025;51.368;6.788;2023-06-14T03:38:40;7.22;;;4.47;;
11931;SDS011;6025;51.368;6.788;2023-06-14T03:43:33;7.30;;;4.72;;
11931;SDS011;6025;51.368;6.788;2023-06-14T03:48:25;5.60;;;4.47;;
11931;SDS011;6025;51.368;6.788;2023-06-14T03:53:16;5.00;;;3.90;;
11931;SDS011;6025;51.368;6.788;2023-06-14T03:58:10;6.72;;;4.43;;
11931;SDS011;6025;51.368;6.788;2023-06-14T04:03:04;6.28;;;4.28;;
11931;SDS011;6025;51.368;6.788;2023-06-14T04:07:56;5.13;;;4.10;;
11931;SDS011;6025;51.368;6.788;2023-06-14T04:12:48;4.70;;;3.90;;
11931;SDS011;6025;51.368;6.788;2023-06-14T04:17:40;5.88;;;3.97;;
11931;SDS011;6025;51.368;6.788;2023-06-14T04:22:34;4.82;;;3.78;;
11931;SDS011;6025;51.368;6.788;2023-06-14T04:27:26;6.05;;;4.03;;
11931;SDS011;6025;51.368;6.788;2023-06-14T04:32:21;6.15;;;4.20;;
11931;SDS011;6025;51.368;6.788;2023-06-14T04:37:12;10.80;;;4.35;;
11931;SDS011;6025;51.368;6.788;2023-06-14T04:42:05;5.55;;;3.95;;
11931;SDS011;6025;51.368;6.788;2023-06-14T04:47:01;5.18;;;3.88;;
11931;SDS011;6025;51.368;6.788;2023-06-14T04:51:57;8.40;;;3.88;;
11931;SDS011;6025;51.368;6.788;2023-06-14T04:56:49;7.25;;;3.78;;
11931;SDS011;6025;51.368;6.788;2023-06-14T05:01:42;5.75;;;3.80;;
11931;SDS011;6025;51.368;6.788;2023-06-14T05:06:38;7.75;;;3.78;;
11931;SDS011;6025;51.368;6.788;2023-06-14T05:11:29;4.53;;;3.60;;
11931;SDS011;6025;51.368;6.788;2023-06-14T05:16:21;6.50;;;3.60;;
11931;SDS011;6025;51.368;6.788;2023-06-14T05:21:14;5.55;;;3.50;;
11931;SDS011;6025;51.368;6.788;2023-06-14T05:26:08;5.43;;;3.42;;
11931;SDS011;6025;51.368;6.788;2023-06-14T05:30:59;3.90;;;3.17;;
11931;SDS011;6025;51.368;6.788;2023-06-14T05:35:51;5.07;;;3.30;;
11931;SDS011;6025;51.368;6.788;2023-06-14T05:40:44;5.10;;;3.60;;
11931;SDS011;6025;51.368;6.788;2023-06-14T05:45:35;7.30;;;3.17;;
11931;SDS011;6025;51.368;6.788;2023-06-14T05:50:27;4.53;;;3.25;;
11931;SDS011;6025;51.368;6.788;2023-06-14T05:55:18;4.78;;;3.45;;
11931;SDS011;6025;51.368;6.788;2023-06-14T06:00:12;9.55;;;3.45;;
11931;SDS011;6025;51.368;6.788;2023-06-14T06:05:06;5.85;;;3.40;;
11931;SDS011;6025;51.368;6.788;2023-06-14T06:09:58;7.00;;;3.47;;
11931;SDS011;6025;51.368;6.788;2023-06-14T06:14:50;4.72;;;3.15;;
11931;SDS011;6025;51.368;6.788;2023-06-14T06:19:43;5.30;;;3.22;;
11931;SDS011;6025;51.368;6.788;2023-06-14T06:24:34;9.63;;;3.80;;
11931;SDS011;6025;51.368;6.788;2023-06-14T06:29:26;7.72;;;4.70;;
11931;SDS011;6025;51.368;6.788;2023-06-14T06:34:17;11.43;;;6.55;;
11931;SDS011;6025;51.368;6.788;2023-06-14T06:39:10;5.65;;;3.20;;
11931;SDS011;6025;51.368;6.788;2023-06-14T06:44:02;6.38;;;3.45;;
11931;SDS011;6025;51.368;6.788;2023-06-14T06:48:53;6.88;;;3.28;;
11931;SDS011;6025;51.368;6.788;2023-06-14T06:53:48;4.40;;;2.80;;
11931;SDS011;6025;51.368;6.788;2023-06-14T06:58:44;5.97;;;3.20;;
11931;SDS011;6025;51.368;6.788;2023-06-14T07:03:36;9.90;;;6.18;;
11931;SDS011;6025;51.368;6.788;2023-06-14T07:08:27;7.30;;;3.08;;
11931;SDS011;6025;51.368;6.788;2023-06-14T07:13:19;4.05;;;2.22;;
11931;SDS011;6025;51.368;6.788;2023-06-14T07:18:12;5.40;;;2.22;;
11931;SDS011;6025;51.368;6.788;2023-06-14T07:23:04;5.10;;;2.75;;
11931;SDS011;6025;51.368;6.788;2023-06-14T07:27:55;4.38;;;2.30;;
11931;SDS011;6025;51.368;6.788;2023-06-14T07:32:47;3.25;;;2.10;;
11931;SDS011;6025;51.368;6.788;2023-06-14T07:37:40;3.72;;;2.13;;
11931;SDS011;6025;51.368;6.788;2023-06-14T07:42:33;8.30;;;2.10;;
11931;SDS011;6025;51.368;6.788;2023-06-14T07:47:24;4.85;;;2.80;;
11931;SDS011;6025;51.368;6.788;2023-06-14T07:52:16;4.32;;;3.13;;
11931;SDS011;6025;51.368;6.788;2023-06-14T07:57:09;5.72;;;2.10;;
11931;SDS011;6025;51.368;6.788;2023-06-14T08:02:01;2.88;;;2.10;;
11931;SDS011;6025;51.368;6.788;2023-06-14T08:06:52;2.70;;;2.08;;
11931;SDS011;6025;51.368;6.788;2023-06-14T08:11:44;4.47;;;2.22;;
11931;SDS011;6025;51.368;6.788;2023-06-14T08:16:37;3.38;;;1.90;;
11931;SDS011;6025;51.368;6.788;2023-06-14T08:21:28;4.78;;;2.47;;
11931;SDS011;6025;51.368;6.788;2023-06-14T08:26:20;4.15;;;2.05;;
11931;SDS011;6025;51.368;6.788;2023-06-14T08:31:12;11.05;;;6.13;;
11931;SDS011;6025;51.368;6.788;2023-06-14T08:36:05;3.90;;;2.55;;
11931;SDS011;6025;51.368;6.788;2023-06-14T08:40:57;3.63;;;2.10;;
11931;SDS011;6025;51.368;6.788;2023-06-14T08:45:49;4.88;;;2.30;;
11931;SDS011;6025;51.368;6.788;2023-06-14T08:50:45;2.70;;;2.17;;
11931;SDS011;6025;51.368;6.788;2023-06-14T08:55:39;6.15;;;3.03;;
11931;SDS011;6025;51.368;6.788;2023-06-14T09:00:31;5.10;;;1.85;;
11931;SDS011;6025;51.368;6.788;2023-06-14T09:05:23;7.18;;;4.63;;
11931;SDS011;6025;51.368;6.788;2023-06-14T09:10:15;3.10;;;2.03;;
11931;SDS011;6025;51.368;6.788;2023-06-14T09:15:09;10.25;;;2.20;;
11931;SDS011;6025;51.368;6.788;2023-06-14T09:20:01;6.00;;;2.10;;
11931;SDS011;6025;51.368;6.788;2023-06-14T09:24:56;5.80;;;2.60;;
11931;SDS011;6025;51.368;6.788;2023-06-14T09:29:47;5.45;;;2.10;;
11931;SDS011;6025;51.368;6.788;2023-06-14T09:34:40;6.60;;;2.63;;
11931;SDS011;6025;51.368;6.788;2023-06-14T09:39:31;4.75;;;2.30;;
11931;SDS011;6025;51.368;6.788;2023-06-14T09:44:23;6.82;;;2.28;;
11931;SDS011;6025;51.368;6.788;2023-06-14T09:49:18;3.83;;;2.08;;
11931;SDS011;6025;51.368;6.788;2023-06-14T09:54:12;3.15;;;1.80;;
11931;SDS011;6025;51.368;6.788;2023-06-14T09:59:06;2.10;;;1.90;;
11931;SDS011;6025;51.368;6.788;2023-06-14T10:04:01;4.10;;;1.70;;
11931;SDS011;6025;51.368;6.788;2023-06-14T10:08:55;3.65;;;1.92;;
11931;SDS011;6025;51.368;6.788;2023-06-14T10:13:50;2.97;;;1.60;;
11931;SDS011;6025;51.368;6.788;2023-06-14T10:18:43;2.85;;;1.80;;
11931;SDS011;6025;51.368;6.788;2023-06-14T10:23:40;7.72;;;1.80;;
11931;SDS011;6025;51.368;6.788;2023-06-14T10:28:33;3.42;;;1.80;;
11931;SDS011;6025;51.368;6.788;2023-06-14T10:33:29;3.78;;;1.58;;
11931;SDS011;6025;51.368;6.788;2023-06-14T10:38:21;6.63;;;1.80;;
11931;SDS011;6025;51.368;6.788;2023-06-14T10:43:22;4.40;;;1.45;;
11931;SDS011;6025;51.368;6.788;2023-06-14T10:48:22;2.95;;;1.35;;
11931;SDS011;6025;51.368;6.788;2023-06-14T10:53:22;2.80;;;1.40;;
11931;SDS011;6025;51.368;6.788;2023-06-14T10:58:13;3.75;;;1.20;;
11931;SDS011;6025;51.368;6.788;2023-06-14T11:03:21;2.75;;;1.13;;
11931;SDS011;6025;51.368;6.788;2023-06-14T11:14:01;3.65;;;1.50;;
11931;SDS011;6025;51.368;6.788;2023-06-14T11:18:54;2.47;;;1.35;;
11931;SDS011;6025;51.368;6.788;2023-06-14T11:23:49;3.45;;;1.30;;
11931;SDS011;6025;51.368;6.788;2023-06-14T11:28:42;1.65;;;1.35;;
11931;SDS011;6025;51.368;6.788;2023-06-14T11:33:33;3.38;;;1.48;;
11931;SDS011;6025;51.368;6.788;2023-06-14T11:38:26;3.05;;;1.30;;
11931;SDS011;6025;51.368;6.788;2023-06-14T11:43:18;5.68;;;1.42;;
11931;SDS011;6025;51.368;6.788;2023-06-14T11:48:10;3.38;;;1.42;;
11931;SDS011;6025;51.368;6.788;2023-06-14T11:53:01;2.95;;;1.27;;
11931;SDS011;6025;51.368;6.788;2023-06-14T11:57:58;2.75;;;1.48;;
11931;SDS011;6025;51.368;6.788;2023-06-14T12:02:53;2.22;;;1.48;;
11931;SDS011;6025;51.368;6.788;2023-06-14T12:07:45;3.88;;;1.40;;
11931;SDS011;6025;51.368;6.788;2023-06-14T12:12:37;5.88;;;1.38;;
11931;SDS011;6025;51.368;6.788;2023-06-14T12:17:32;3.65;;;1.35;;
11931;SDS011;6025;51.368;6.788;2023-06-14T12:22:25;2.30;;;1.35;;
11931;SDS011;6025;51.368;6.788;2023-06-14T12:27:21;5.45;;;1.25;;
11931;SDS011;6025;51.368;6.788;2023-06-14T12:32:14;3.58;;;1.35;;
11931;SDS011;6025;51.368;6.788;2023-06-14T12:37:07;2.58;;;1.50;;
11931;SDS011;6025;51.368;6.788;2023-06-14T12:41:58;5.45;;;1.40;;
11931;SDS011;6025;51.368;6.788;2023-06-14T12:46:50;4.03;;;1.60;;
11931;SDS011;6025;51.368;6.788;2023-06-14T12:51:44;1.58;;;1.48;;
11931;SDS011;6025;51.368;6.788;2023-06-14T12:56:37;3.53;;;1.38;;
11931;SDS011;6025;51.368;6.788;2023-06-14T13:01:29;3.85;;;2.10;;
11931;SDS011;6025;51.368;6.788;2023-06-14T13:06:20;5.47;;;2.03;;
11931;SDS011;6025;51.368;6.788;2023-06-14T13:11:12;5.75;;;1.70;;
11931;SDS011;6025;51.368;6.788;2023-06-14T13:16:05;3.05;;;1.45;;
11931;SDS011;6025;51.368;6.788;2023-06-14T13:20:57;2.28;;;1.40;;
11931;SDS011;6025;51.368;6.788;2023-06-14T13:25:49;2.40;;;1.50;;
11931;SDS011;6025;51.368;6.788;2023-06-14T13:30:41;2.30;;;1.80;;
11931;SDS011;6025;51.368;6.788;2023-06-14T13:35:34;4.15;;;1.80;;
11931;SDS011;6025;51.368;6.788;2023-06-14T13:40:25;2.25;;;1.70;;
11931;SDS011;6025;51.368;6.788;2023-06-14T13:45:17;5.07;;;3.30;;
11931;SDS011;6025;51.368;6.788;2023-06-14T13:50:09;4.43;;;2.35;;
11931;SDS011;6025;51.368;6.788;2023-06-14T13:55:02;3.90;;;2.10;;
11931;SDS011;6025;51.368;6.788;2023-06-14T13:59:55;4.43;;;1.95;;
11931;SDS011;6025;51.368;6.788;2023-06-14T14:04:51;3.85;;;2.20;;
11931;SDS011;6025;51.368;6.788;2023-06-14T14:09:43;3.05;;;2.20;;
11931;SDS011;6025;51.368;6.788;2023-06-14T14:14:36;1.70;;;1.60;;
11931;SDS011;6025;51.368;6.788;2023-06-14T14:19:28;5.68;;;2.15;;
11931;SDS011;6025;51.368;6.788;2023-06-14T14:24:19;3.08;;;2.60;;
11931;SDS011;6025;51.368;6.788;2023-06-14T14:29:11;4.72;;;3.13;;
11931;SDS011;6025;51.368;6.788;2023-06-14T14:34:03;4.25;;;1.98;;
11931;SDS011;6025;51.368;6.788;2023-06-14T14:38:55;2.10;;;1.90;;
11931;SDS011;6025;51.368;6.788;2023-06-14T14:43:47;9.75;;;7.47;;
11931;SDS011;6025;51.368;6.788;2023-06-14T14:48:38;3.50;;;1.80;;
11931;SDS011;6025;51.368;6.788;2023-06-14T14:53:31;4.32;;;1.98;;
11931;SDS011;6025;51.368;6.788;2023-06-14T14:58:23;3.50;;;2.10;;
11931;SDS011;6025;51.368;6.788;2023-06-14T15:03:14;4.25;;;2.22;;
11931;SDS011;6025;51.368;6.788;2023-06-14T15:08:06;4.72;;;2.30;;
11931;SDS011;6025;51.368;6.788;2023-06-14T15:13:03;5.13;;;2.90;;
11931;SDS011;6025;51.368;6.788;2023-06-14T15:17:54;2.42;;;1.98;;
11931;SDS011;6025;51.368;6.788;2023-06-14T15:22:46;2.95;;;2.00;;
11931;SDS011;6025;51.368;6.788;2023-06-14T15:27:37;4.47;;;2.22;;
11931;SDS011;6025;51.368;6.788;2023-06-14T15:32:30;2.88;;;1.83;;
11931;SDS011;6025;51.368;6.788;2023-06-14T15:37:22;3.72;;;1.88;;
11931;SDS011;6025;51.368;6.788;2023-06-14T15:42:13;4.05;;;2.28;;
11931;SDS011;6025;51.368;6.788;2023-06-14T15:47:05;3.17;;;2.88;;
11931;SDS011;6025;51.368;6.788;2023-06-14T15:51:59;3.60;;;2.13;;
11931;SDS011;6025;51.368;6.788;2023-06-14T15:56:51;2.08;;;1.80;;
11931;SDS011;6025;51.368;6.788;2023-06-14T16:01:43;4.20;;;1.85;;
11931;SDS011;6025;51.368;6.788;2023-06-14T16:06:34;3.17;;;2.03;;
11931;SDS011;6025;51.368;6.788;2023-06-14T16:11:27;3.30;;;2.08;;
11931;SDS011;6025;51.368;6.788;2023-06-14T16:16:19;4.72;;;2.08;;
11931;SDS011;6025;51.368;6.788;2023-06-14T16:21:11;2.35;;;1.85;;
11931;SDS011;6025;51.368;6.788;2023-06-14T16:26:03;3.03;;;1.98;;
11931;SDS011;6025;51.368;6.788;2023-06-14T16:30:56;4.57;;;2.08;;
11931;SDS011;6025;51.368;6.788;2023-06-14T16:35:47;4.72;;;2.10;;
11931;SDS011;6025;51.368;6.788;2023-06-14T16:40:39;4.07;;;2.30;;
11931;SDS011;6025;51.368;6.788;2023-06-14T16:45:31;3.72;;;2.20;;
11931;SDS011;6025;51.368;6.788;2023-06-14T16:50:24;2.63;;;2.20;;
11931;SDS011;6025;51.368;6.788;2023-06-14T16:55:16;2.97;;;2.17;;
11931;SDS011;6025;51.368;6.788;2023-06-14T17:00:08;3.10;;;2.25;;
11931;SDS011;6025;51.368;6.788;2023-06-14T17:05:00;2.60;;;1.92;;
11931;SDS011;6025;51.368;6.788;2023-06-14T17:09:53;3.00;;;2.30;;
11931;SDS011;6025;51.368;6.788;2023-06-14T17:14:44;4.05;;;2.28;;
11931;SDS011;6025;51.368;6.788;2023-06-14T17:19:36;3.75;;;2.40;;
11931;SDS011;6025;51.368;6.788;2023-06-14T17:24:28;2.75;;;2.22;;
11931;SDS011;6025;51.368;6.788;2023-06-14T17:29:21;3.15;;;2.15;;
11931;SDS011;6025;51.368;6.788;2023-06-14T17:34:13;3.03;;;2.30;;
11931;SDS011;6025;51.368;6.788;2023-06-14T17:39:05;3.28;;;2.08;;
11931;SDS011;6025;51.368;6.788;2023-06-14T17:43:58;3.38;;;1.98;;
11931;SDS011;6025;51.368;6.788;2023-06-14T17:48:51;4.65;;;2.17;;
11931;SDS011;6025;51.368;6.788;2023-06-14T17:53:42;2.72;;;2.05;;
11931;SDS011;6025;51.368;6.788;2023-06-14T17:58:34;5.60;;;2.22;;
11931;SDS011;6025;51.368;6.788;2023-06-14T18:03:25;6.30;;;2.50;;
11931;SDS011;6025;51.368;6.788;2023-06-14T18:08:18;3.42;;;2.25;;
11931;SDS011;6025;51.368;6.788;2023-06-14T18:13:10;7.63;;;2.33;;
11931;SDS011;6025;51.368;6.788;2023-06-14T18:18:02;4.68;;;2.00;;
11931;SDS011;6025;51.368;6.788;2023-06-14T18:22:53;4.03;;;2.30;;
11931;SDS011;6025;51.368;6.788;2023-06-14T18:27:46;6.80;;;2.42;;
11931;SDS011;6025;51.368;6.788;2023-06-14T18:32:38;2.95;;;2.10;;
11931;SDS011;6025;51.368;6.788;2023-06-14T18:37:30;2.40;;;2.10;;
11931;SDS011;6025;51.368;6.788;2023-06-14T18:42:22;2.50;;;1.98;;
11931;SDS011;6025;51.368;6.788;2023-06-14T18:47:15;3.03;;;2.38;;
11931;SDS011;6025;51.368;6.788;2023-06-14T18:52:08;3.85;;;2.22;;
11931;SDS011;6025;51.368;6.788;2023-06-14T18:56:59;3.03;;;1.90;;
11931;SDS011;6025;51.368;6.788;2023-06-14T19:01:51;5.57;;;2.10;;
11931;SDS011;6025;51.368;6.788;2023-06-14T19:06:46;3.65;;;2.00;;
11931;SDS011;6025;51.368;6.788;2023-06-14T19:11:38;2.58;;;2.03;;
11931;SDS011;6025;51.368;6.788;2023-06-14T19:16:30;7.75;;;2.00;;
11931;SDS011;6025;51.368;6.788;2023-06-14T19:21:22;2.45;;;1.90;;
11931;SDS011;6025;51.368;6.788;2023-06-14T19:26:15;2.45;;;1.83;;
11931;SDS011;6025;51.368;6.788;2023-06-14T19:31:06;4.25;;;1.67;;
11931;SDS011;6025;51.368;6.788;2023-06-14T19:35:57;2.83;;;1.83;;
11931;SDS011;6025;51.368;6.788;2023-06-14T19:40:49;4.18;;;1.85;;
11931;SDS011;6025;51.368;6.788;2023-06-14T19:45:42;2.33;;;1.88;;
11931;SDS011;6025;51.368;6.788;2023-06-14T19:50:33;3.17;;;2.00;;
11931;SDS011;6025;51.368;6.788;2023-06-14T19:55:25;3.35;;;2.00;;
11931;SDS011;6025;51.368;6.788;2023-06-14T20:00:18;2.10;;;1.90;;
11931;SDS011;6025;51.368;6.788;2023-06-14T20:05:11;2.08;;;1.88;;
11931;SDS011;6025;51.368;6.788;2023-06-14T20:10:02;2.17;;;1.75;;
11931;SDS011;6025;51.368;6.788;2023-06-14T20:14:54;2.95;;;2.00;;
11931;SDS011;6025;51.368;6.788;2023-06-14T20:19:46;2.75;;;2.00;;
11931;SDS011;6025;51.368;6.788;2023-06-14T20:24:40;3.65;;;1.92;;
11931;SDS011;6025;51.368;6.788;2023-06-14T20:29:31;2.20;;;1.80;;
11931;SDS011;6025;51.368;6.788;2023-06-14T20:34:23;3.00;;;1.75;;
11931;SDS011;6025;51.368;6.788;2023-06-14T20:39:14;4.20;;;2.10;;
11931;SDS011;6025;51.368;6.788;2023-06-14T20:44:07;3.63;;;2.15;;
11931;SDS011;6025;51.368;6.788;2023-06-14T20:49:01;5.15;;;2.28;;
11931;SDS011;6025;51.368;6.788;2023-06-14T20:53:53;3.08;;;1.95;;
11931;SDS011;6025;51.368;6.788;2023-06-14T20:58:44;2.78;;;2.17;;
11931;SDS011;6025;51.368;6.788;2023-06-14T21:03:37;3.38;;;2.00;;
11931;SDS011;6025;51.368;6.788;2023-06-14T21:08:29;2.55;;;2.08;;
11931;SDS011;6025;51.368;6.788;2023-06-14T21:13:20;3.53;;;2.05;;
11931;SDS011;6025;51.368;6.788;2023-06-14T21:18:12;2.67;;;2.45;;
11931;SDS011;6025;51.368;6.788;2023-06-14T21:23:05;3.70;;;2.25;;
11931;SDS011;6025;51.368;6.788;2023-06-14T21:27:56;3.38;;;2.38;;
11931;SDS011;6025;51.368;6.788;2023-06-14T21:32:48;2.67;;;2.28;;
11931;SDS011;6025;51.368;6.788;2023-06-14T21:37:39;5.07;;;2.20;;
11931;SDS011;6025;51.368;6.788;2023-06-14T21:42:32;2.67;;;2.17;;
11931;SDS011;6025;51.368;6.788;2023-06-14T21:47:24;4.28;;;2.10;;
11931;SDS011;6025;51.368;6.788;2023-06-14T21:52:15;5.05;;;1.98;;
11931;SDS011;6025;51.368;6.788;2023-06-14T21:57:07;2.00;;;1.80;;
11931;SDS011;6025;51.368;6.788;2023-06-14T22:02:01;2.88;;;1.92;;
11931;SDS011;6025;51.368;6.788;2023-06-14T22:06:53;4.55;;;2.15;;
11931;SDS011;6025;51.368;6.788;2023-06-14T22:11:46;2.58;;;1.73;;
11931;SDS011;6025;51.368;6.788;2023-06-14T22:16:39;2.88;;;2.20;;
11931;SDS011;6025;51.368;6.788;2023-06-14T22:21:33;2.90;;;2.10;;
11931;SDS011;6025;51.368;6.788;2023-06-14T22:26:25;5.57;;;2.30;;
11931;SDS011;6025;51.368;6.788;2023-06-14T22:31:16;2.58;;;2.10;;
11931;SDS011;6025;51.368;6.788;2023-06-14T22:36:09;4.20;;;1.98;;
11931;SDS011;6025;51.368;6.788;2023-06-14T22:41:02;2.67;;;2.13;;
11931;SDS011;6025;51.368;6.788;2023-06-14T22:45:57;3.97;;;2.33;;
11931;SDS011;6025;51.368;6.788;2023-06-14T22:50:49;3.47;;;2.40;;
11931;SDS011;6025;51.368;6.788;2023-06-14T22:55:41;3.72;;;2.30;;
11931;SDS011;6025;51.368;6.788;2023-06-14T23:00:34;7.32;;;2.20;;
11931;SDS011;6025;51.368;6.788;2023-06-14T23:05:26;2.83;;;2.22;;
11931;SDS011;6025;51.368;6.788;2023-06-14T23:10:18;3.28;;;2.30;;
11931;SDS011;6025;51.368;6.788;2023-06-14T23:15:12;5.13;;;2.20;;
11931;SDS011;6025;51.368;6.788;2023-06-14T23:20:06;2.55;;;2.22;;
11931;SDS011;6025;51.368;6.788;2023-06-14T23:25:00;6.03;;;2.40;;
11931;SDS011;6025;51.368;6.788;2023-06-14T23:29:52;2.58;;;2.22;;
11931;SDS011;6025;51.368;6.788;2023-06-14T23:34:47;2.60;;;2.40;;
11931;SDS011;6025;51.368;6.788;2023-06-14T23:39:40;2.95;;;2.30;;
11931;SDS011;6025;51.368;6.788;2023-06-14T23:44:38;3.25;;;2.38;;
11931;SDS011;6025;51.368;6.788;2023-06-14T23:49:30;3.55;;;2.33;;
11931;SDS011;6025;51.368;6.788;2023-06-14T23:54:22;3.03;;;2.50;;
11931;SDS011;6025;51.368;6.788;2023-06-14T23:59:16;2.80;;;2.40;;
